createdAt,value
2022-09-24T00:01:18.363Z,100.00
2022-09-24T00:04:20.186Z,100.00
2022-09-24T00:07:21.635Z,100.00
2022-09-24T00:10:23.122Z,100.00
2022-09-24T00:13:24.497Z,100.00
2022-09-24T00:16:26.557Z,100.00
2022-09-24T00:19:27.923Z,100.00
2022-09-24T00:22:29.374Z,100.00
2022-09-24T00:25:51.180Z,100.00
2022-09-24T00:28:52.567Z,100.00
2022-09-24T00:31:54.061Z,100.00
2022-09-24T00:34:55.531Z,100.00
2022-09-24T00:37:58.119Z,100.00
2022-09-24T00:40:59.861Z,100.00
2022-09-24T00:44:01.313Z,100.00
2022-09-24T00:47:02.894Z,100.00
2022-09-24T00:50:06.171Z,100.00
2022-09-24T00:53:12.272Z,100.00
2022-09-24T00:56:15.560Z,100.00
2022-09-24T00:59:17.409Z,100.00
2022-09-24T01:02:18.859Z,100.00
2022-09-24T01:05:20.324Z,100.00
2022-09-24T01:08:21.724Z,100.00
2022-09-24T01:11:33.501Z,100.00
2022-09-24T01:14:41.527Z,100.00
2022-09-24T01:18:01.756Z,100.00
2022-09-24T01:21:03.032Z,100.00
2022-09-24T01:24:21.107Z,100.00
2022-09-24T01:27:41.296Z,100.00
2022-09-24T01:30:42.685Z,100.00
2022-09-24T01:33:44.898Z,100.00
2022-09-24T01:36:46.337Z,100.00
2022-09-24T01:39:47.718Z,100.00
2022-09-24T01:42:50.890Z,100.00
2022-09-24T01:45:52.274Z,100.00
2022-09-24T01:48:53.625Z,100.00
2022-09-24T01:51:56.164Z,100.00
2022-09-24T01:54:57.563Z,100.00
2022-09-24T01:58:03.915Z,100.00
2022-09-24T02:01:08.146Z,100.00
2022-09-24T02:04:11.930Z,100.00
2022-09-24T02:07:24.528Z,100.00
2022-09-24T02:10:25.870Z,100.00
2022-09-24T02:13:28.049Z,100.00
2022-09-24T02:16:36.582Z,100.00
2022-09-24T02:19:38.144Z,100.00
2022-09-24T02:22:39.763Z,100.00
2022-09-24T02:25:41.069Z,100.00
2022-09-24T02:28:42.418Z,100.00
2022-09-24T02:31:47.712Z,100.00
2022-09-24T02:34:50.423Z,100.00
2022-09-24T02:37:51.754Z,100.00
2022-09-24T02:40:53.440Z,100.00
2022-09-24T02:43:54.876Z,100.00
2022-09-24T02:46:56.276Z,100.00
2022-09-24T02:49:57.654Z,100.00
2022-09-24T02:52:59.036Z,100.00
2022-09-24T02:56:00.888Z,100.00
2022-09-24T02:59:02.884Z,100.00
2022-09-24T03:02:04.502Z,100.00
2022-09-24T03:05:06.311Z,100.00
2022-09-24T03:08:07.695Z,100.00
2022-09-24T03:11:12.964Z,100.00
2022-09-24T03:14:16.543Z,100.00
2022-09-24T03:17:17.915Z,100.00
2022-09-24T03:20:19.297Z,100.00
2022-09-24T03:23:20.676Z,100.00
2022-09-24T03:26:22.018Z,100.00
2022-09-24T03:29:43.372Z,100.00
2022-09-24T03:32:44.734Z,100.00
2022-09-24T03:35:46.073Z,100.00
2022-09-24T03:38:48.490Z,100.00
2022-09-24T03:41:49.834Z,100.00
2022-09-24T03:44:54.177Z,100.00
2022-09-24T03:47:55.712Z,100.00
2022-09-24T03:50:57.094Z,100.00
2022-09-24T03:53:58.434Z,100.00
2022-09-24T03:56:59.775Z,100.00
2022-09-24T04:00:01.174Z,100.00
2022-09-24T04:03:02.557Z,100.00
2022-09-24T04:06:04.279Z,100.00
2022-09-24T04:09:05.663Z,100.00
2022-09-24T04:12:06.986Z,100.00
2022-09-24T04:15:08.486Z,100.00
2022-09-24T04:18:09.898Z,100.00
2022-09-24T04:21:11.320Z,100.00
2022-09-24T04:24:12.721Z,100.00
2022-09-24T04:27:14.050Z,100.00
2022-09-24T04:30:15.391Z,100.00
2022-09-24T04:33:17.012Z,100.00
2022-09-24T04:36:18.370Z,100.00
2022-09-24T04:39:22.426Z,100.00
2022-09-24T04:42:23.748Z,100.00
2022-09-24T04:45:26.638Z,100.00
2022-09-24T04:48:28.209Z,100.00
2022-09-24T04:51:29.692Z,100.00
2022-09-24T04:54:31.032Z,100.00
2022-09-24T04:57:36.497Z,100.00
2022-09-24T05:00:37.891Z,100.00
2022-09-24T05:03:39.585Z,100.00
2022-09-24T05:06:41.603Z,100.00
2022-09-24T05:09:43.046Z,100.00
2022-09-24T05:12:44.407Z,100.00
2022-09-24T05:15:45.975Z,100.00
2022-09-24T05:18:47.678Z,100.00
2022-09-24T05:21:49.025Z,100.00
2022-09-24T05:24:50.368Z,100.00
2022-09-24T05:27:52.312Z,100.00
2022-09-24T05:30:57.012Z,100.00
2022-09-24T05:33:58.442Z,100.00
2022-09-24T05:37:00.115Z,100.00
2022-09-24T05:40:21.648Z,100.00
2022-09-24T05:43:23.725Z,100.00
2022-09-24T05:46:25.240Z,100.00
2022-09-24T05:49:26.670Z,100.00
2022-09-24T05:52:27.999Z,100.00
2022-09-24T05:55:32.449Z,100.00
2022-09-24T05:58:34.114Z,100.00
2022-09-24T06:01:35.466Z,100.00
2022-09-24T06:04:36.846Z,100.00
2022-09-24T06:07:38.326Z,100.00
2022-09-24T06:10:39.694Z,100.00
2022-09-24T06:13:41.041Z,100.00
2022-09-24T06:16:42.476Z,100.00
2022-09-24T06:19:43.935Z,100.00
2022-09-24T06:22:45.282Z,100.00
2022-09-24T06:25:50.713Z,100.00
2022-09-24T06:28:52.212Z,100.00
2022-09-24T06:31:53.663Z,100.00
2022-09-24T06:34:59.030Z,100.00
2022-09-24T06:38:00.751Z,100.00
2022-09-24T06:41:03.544Z,100.00
2022-09-24T06:44:05.040Z,100.00
2022-09-24T06:47:06.401Z,100.00
2022-09-24T06:50:08.799Z,100.00
2022-09-24T06:53:10.600Z,100.00
2022-09-24T06:56:11.932Z,100.00
2022-09-24T06:59:13.312Z,100.00
2022-09-24T07:02:14.713Z,100.00
2022-09-24T07:05:16.150Z,100.00
2022-09-24T07:08:17.631Z,100.00
2022-09-24T07:11:19.008Z,100.00
2022-09-24T07:14:20.377Z,100.00
2022-09-24T07:17:21.724Z,100.00
2022-09-24T07:20:23.561Z,100.00
2022-09-24T07:23:25.092Z,100.00
2022-09-24T07:26:28.188Z,100.00
2022-09-24T07:29:29.701Z,100.00
2022-09-24T07:32:31.054Z,100.00
2022-09-24T07:35:32.415Z,100.00
2022-09-24T07:38:35.225Z,100.00
2022-09-24T07:41:41.923Z,100.00
2022-09-24T07:44:43.582Z,100.00
2022-09-24T07:47:44.982Z,100.00
2022-09-24T07:50:46.326Z,100.00
2022-09-24T07:53:48.577Z,100.00
2022-09-24T07:56:49.936Z,100.00
2022-09-24T07:59:51.609Z,100.00
2022-09-24T08:02:53.886Z,100.00
2022-09-24T08:05:58.608Z,100.00
2022-09-24T08:09:00.099Z,100.00
2022-09-24T08:12:01.659Z,100.00
2022-09-24T08:15:03.111Z,100.00
2022-09-24T08:18:04.619Z,100.00
2022-09-24T08:21:06.469Z,100.00
2022-09-24T08:24:07.899Z,100.00
2022-09-24T08:27:12.631Z,100.00
2022-09-24T08:30:16.467Z,100.00
2022-09-24T08:33:17.845Z,100.00
2022-09-24T08:36:19.227Z,100.00
2022-09-24T08:39:20.587Z,100.00
2022-09-24T08:42:31.105Z,100.00
2022-09-24T08:45:52.247Z,100.00
2022-09-24T08:48:53.600Z,100.00
2022-09-24T08:51:57.989Z,100.00
2022-09-24T08:55:02.403Z,100.00
2022-09-24T08:58:25.263Z,100.00
2022-09-24T09:01:26.578Z,100.00
2022-09-24T09:04:33.981Z,100.00
2022-09-24T09:07:40.506Z,100.00
2022-09-24T09:10:42.264Z,100.00
2022-09-24T09:13:44.916Z,100.00
2022-09-24T09:16:50.646Z,100.00
2022-09-24T09:19:54.609Z,100.00
2022-09-24T09:22:55.988Z,100.00
2022-09-24T09:26:00.263Z,100.00
2022-09-24T09:29:01.804Z,100.00
2022-09-24T09:32:05.424Z,100.00
2022-09-24T09:35:19.550Z,100.00
2022-09-24T09:38:40.799Z,100.00
2022-09-24T09:41:45.703Z,100.00
2022-09-24T09:44:47.116Z,100.00
2022-09-24T09:47:55.316Z,100.00
2022-09-24T09:50:59.388Z,100.00
2022-09-24T09:54:01.815Z,100.00
2022-09-24T09:57:03.382Z,100.00
2022-09-24T10:00:07.386Z,100.00
2022-09-24T10:03:27.484Z,100.00
2022-09-24T10:06:29.644Z,100.00
2022-09-24T10:09:31.139Z,100.00
2022-09-24T10:12:32.512Z,100.00
2022-09-24T10:15:33.995Z,100.00
2022-09-24T10:18:35.322Z,100.00
2022-09-24T10:21:36.801Z,100.00
2022-09-24T10:24:38.144Z,100.00
2022-09-24T10:27:39.528Z,100.00
2022-09-24T10:30:48.077Z,100.00
2022-09-24T10:33:50.522Z,100.00
2022-09-24T10:36:52.863Z,100.00
2022-09-24T10:40:01.104Z,100.00
2022-09-24T10:43:02.841Z,100.00
2022-09-24T10:46:04.188Z,100.00
2022-09-24T10:49:14.454Z,100.00
2022-09-24T10:52:24.896Z,100.00
2022-09-24T10:55:26.206Z,100.00
2022-09-24T10:58:32.612Z,100.00
2022-09-24T11:01:57.061Z,100.00
2022-09-24T11:05:04.224Z,100.00
2022-09-24T11:08:25.377Z,100.00
2022-09-24T11:11:26.727Z,100.00
2022-09-24T11:14:46.783Z,100.00
2022-09-24T11:18:06.960Z,100.00
2022-09-24T11:21:11.322Z,100.00
2022-09-24T11:24:45.028Z,100.00
2022-09-24T11:28:04.109Z,100.00
2022-09-24T11:31:08.478Z,100.00
2022-09-24T11:34:28.980Z,100.00
2022-09-24T11:37:39.148Z,100.00
2022-09-24T11:40:49.051Z,100.00
2022-09-24T11:44:01.019Z,100.00
2022-09-24T11:47:05.460Z,100.00
2022-09-24T11:50:25.611Z,100.00
2022-09-24T11:53:45.667Z,100.00
2022-09-24T11:56:48.657Z,100.00
2022-09-24T11:59:56.171Z,100.00
2022-09-24T12:02:59.735Z,100.00
2022-09-24T12:06:07.814Z,100.00
2022-09-24T12:09:15.325Z,100.00
2022-09-24T12:12:18.424Z,100.00
2022-09-24T12:15:24.567Z,100.00
2022-09-24T12:18:33.501Z,100.00
2022-09-24T12:21:36.281Z,100.00
2022-09-24T12:24:39.216Z,100.00
2022-09-24T12:27:40.788Z,100.00
2022-09-24T12:31:00.800Z,100.00
2022-09-24T12:34:11.354Z,100.00
2022-09-24T12:37:13.260Z,100.00
2022-09-24T12:40:20.397Z,100.00
2022-09-24T12:43:25.369Z,100.00
2022-09-24T12:46:35.141Z,100.00
2022-09-24T12:49:36.607Z,100.00
2022-09-24T12:52:41.383Z,100.00
2022-09-24T12:55:44.523Z,100.00
2022-09-24T12:58:46.519Z,100.00
2022-09-24T13:01:47.935Z,100.00
2022-09-24T13:04:52.148Z,100.00
2022-09-24T13:07:59.515Z,100.00
2022-09-24T13:11:05.655Z,100.00
2022-09-24T13:14:13.048Z,100.00
2022-09-24T13:17:14.462Z,100.00
2022-09-24T13:20:26.031Z,100.00
2022-09-24T13:23:29.371Z,100.00
2022-09-24T13:26:33.612Z,100.00
2022-09-24T13:29:37.597Z,100.00
2022-09-24T13:32:40.783Z,100.00
2022-09-24T13:36:03.237Z,100.00
2022-09-24T13:39:16.419Z,100.00
2022-09-24T13:45:21.435Z,100.00
2022-09-24T13:48:34.299Z,100.00
2022-09-24T13:51:36.438Z,100.00
2022-09-24T13:54:39.787Z,97.11
2022-09-24T13:57:44.637Z,94.85
2022-09-24T14:00:46.547Z,93.02
2022-09-24T14:03:54.885Z,97.31
2022-09-24T14:06:57.391Z,93.63
2022-09-24T14:10:02.655Z,98.73
2022-09-24T14:13:23.168Z,100.00
2022-09-24T14:16:25.291Z,100.00
2022-09-24T14:19:26.796Z,99.03
2022-09-24T14:22:38.351Z,93.75
2022-09-24T14:25:40.026Z,86.96
2022-09-24T14:28:41.424Z,95.40
2022-09-24T14:31:46.767Z,100.00
2022-09-24T14:34:48.130Z,100.00
2022-09-24T14:37:50.597Z,100.00
2022-09-24T14:40:54.856Z,100.00
2022-09-24T14:43:56.351Z,100.00
2022-09-24T14:46:58.268Z,100.00
2022-09-24T14:49:59.858Z,100.00
2022-09-24T14:53:01.316Z,100.00
2022-09-24T14:56:18.030Z,100.00
2022-09-24T14:59:29.606Z,100.00
2022-09-24T15:02:33.089Z,100.00
2022-09-24T15:05:34.942Z,100.00
2022-09-24T15:08:36.497Z,100.00
2022-09-24T15:11:37.921Z,100.00
2022-09-24T15:14:39.683Z,100.00
2022-09-24T15:17:41.014Z,100.00
2022-09-24T15:20:43.874Z,100.00
2022-09-24T15:23:45.417Z,100.00
2022-09-24T15:26:47.805Z,100.00
2022-09-24T15:29:49.909Z,100.00
2022-09-24T15:32:51.650Z,100.00
2022-09-24T15:35:52.997Z,100.00
2022-09-24T15:38:58.094Z,100.00
2022-09-24T15:41:59.454Z,100.00
2022-09-24T15:45:00.847Z,100.00
2022-09-24T15:48:02.342Z,100.00
2022-09-24T15:51:10.107Z,100.00
2022-09-24T15:54:12.371Z,100.00
2022-09-24T15:57:14.347Z,100.00
2022-09-24T16:00:19.281Z,100.00
2022-09-24T16:03:24.692Z,100.00
2022-09-24T16:06:26.090Z,100.00
2022-09-24T16:09:27.484Z,100.00
2022-09-24T16:12:28.883Z,100.00
2022-09-24T16:15:30.200Z,100.00
2022-09-24T16:18:31.499Z,100.00
2022-09-24T16:21:33.002Z,100.00
2022-09-24T16:24:34.473Z,100.00
2022-09-24T16:27:36.073Z,100.00
2022-09-24T16:30:38.835Z,100.00
2022-09-24T16:33:40.284Z,100.00
2022-09-24T16:36:41.612Z,100.00
2022-09-24T16:39:43.014Z,100.00
2022-09-24T16:42:44.355Z,100.00
2022-09-24T16:45:45.734Z,100.00
2022-09-24T16:48:48.871Z,100.00
2022-09-24T16:51:50.257Z,100.00
2022-09-24T16:54:51.608Z,100.00
2022-09-24T16:57:53.044Z,100.00
2022-09-24T17:00:54.358Z,100.00
2022-09-24T17:03:56.292Z,100.00
2022-09-24T17:06:57.625Z,100.00
2022-09-24T17:10:15.507Z,100.00
2022-09-24T17:13:16.827Z,100.00
2022-09-24T17:16:18.867Z,100.00
2022-09-24T17:19:20.325Z,100.00
2022-09-24T17:22:21.666Z,100.00
2022-09-24T17:25:22.996Z,100.00
2022-09-24T17:28:24.319Z,100.00
2022-09-24T17:31:25.848Z,100.00
2022-09-24T17:34:27.457Z,100.00
2022-09-24T17:37:29.086Z,100.00
2022-09-24T17:40:30.638Z,100.00
2022-09-24T17:43:32.222Z,100.00
2022-09-24T17:46:36.018Z,100.00
2022-09-24T17:49:37.847Z,100.00
2022-09-24T17:52:39.309Z,100.00
2022-09-24T17:55:47.178Z,100.00
2022-09-24T17:58:48.507Z,100.00
2022-09-24T18:01:51.076Z,100.00
2022-09-24T18:04:52.434Z,100.00
2022-09-24T18:07:53.778Z,100.00
2022-09-24T18:11:05.109Z,100.00
2022-09-24T18:14:06.454Z,100.00
2022-09-24T18:17:08.122Z,100.00
2022-09-24T18:20:09.512Z,100.00
2022-09-24T18:23:10.856Z,100.00
2022-09-24T18:26:16.629Z,100.00
2022-09-24T18:29:19.138Z,100.00
2022-09-24T18:32:20.541Z,100.00
2022-09-24T18:35:21.890Z,100.00
2022-09-24T18:38:23.244Z,100.00
2022-09-24T18:41:25.778Z,100.00
2022-09-24T18:44:27.117Z,100.00
2022-09-24T18:47:28.652Z,100.00
2022-09-24T18:50:30.143Z,100.00
2022-09-24T18:53:31.831Z,100.00
2022-09-24T18:56:33.243Z,100.00
2022-09-24T18:59:38.565Z,100.00
2022-09-24T19:02:39.971Z,100.00
2022-09-24T19:05:41.365Z,100.00
2022-09-24T19:08:42.673Z,100.00
2022-09-24T19:11:45.360Z,100.00
2022-09-24T19:14:46.777Z,100.00
2022-09-24T19:17:48.914Z,100.00
2022-09-24T19:20:50.230Z,100.00
2022-09-24T19:23:52.284Z,100.00
2022-09-24T19:26:53.730Z,100.00
2022-09-24T19:29:55.075Z,100.00
2022-09-24T19:32:57.720Z,100.00
2022-09-24T19:35:59.636Z,100.00
2022-09-24T19:39:01.527Z,100.00
2022-09-24T19:42:02.842Z,100.00
2022-09-24T19:45:05.146Z,100.00
2022-09-24T19:48:06.473Z,100.00
2022-09-24T19:51:08.923Z,100.00
2022-09-24T19:54:10.402Z,100.00
2022-09-24T19:57:12.190Z,100.00
2022-09-24T20:00:14.049Z,100.00
2022-09-24T20:03:15.675Z,100.00
2022-09-24T20:06:21.064Z,100.00
2022-09-24T20:09:22.382Z,100.00
2022-09-24T20:12:23.714Z,100.00
2022-09-24T20:15:25.087Z,100.00
2022-09-24T20:18:26.428Z,100.00
2022-09-24T20:21:29.234Z,100.00
2022-09-24T20:24:30.542Z,100.00
2022-09-24T20:27:50.509Z,100.00
2022-09-24T20:30:52.158Z,100.00
2022-09-24T20:33:53.534Z,100.00
2022-09-24T20:36:54.906Z,100.00
2022-09-24T20:39:56.236Z,100.00
2022-09-24T20:42:58.030Z,100.00
2022-09-24T20:46:01.014Z,100.00
2022-09-24T20:49:02.451Z,100.00
2022-09-24T20:52:05.610Z,100.00
2022-09-24T20:55:07.250Z,100.00
2022-09-24T20:58:09.092Z,100.00
2022-09-24T21:01:10.633Z,100.00
2022-09-24T21:04:12.212Z,100.00
2022-09-24T21:07:13.570Z,100.00
2022-09-24T21:10:14.900Z,100.00
2022-09-24T21:13:16.312Z,100.00
2022-09-24T21:16:19.803Z,100.00
2022-09-24T21:19:21.292Z,100.00
2022-09-24T21:22:23.829Z,100.00
2022-09-24T21:25:52.366Z,100.00
2022-09-24T21:28:46.975Z,100.00
2022-09-24T21:31:48.597Z,100.00
2022-09-24T21:34:49.894Z,100.00
2022-09-24T21:37:51.961Z,100.00
2022-09-24T21:40:53.801Z,100.00
2022-09-24T21:43:55.769Z,100.00
2022-09-24T21:46:57.125Z,100.00
2022-09-24T21:49:59.125Z,100.00
2022-09-24T21:53:00.639Z,100.00
2022-09-24T21:56:02.253Z,100.00
2022-09-24T21:59:23.551Z,100.00
2022-09-24T22:02:25.127Z,100.00
2022-09-24T22:05:26.505Z,100.00
2022-09-24T22:08:29.809Z,100.00
2022-09-24T22:11:31.178Z,100.00
2022-09-24T22:14:34.569Z,100.00
2022-09-24T22:17:35.912Z,100.00
2022-09-24T22:20:41.077Z,100.00
2022-09-24T22:23:42.396Z,100.00
2022-09-24T22:26:43.734Z,100.00
2022-09-24T22:29:45.149Z,100.00
2022-09-24T22:32:46.481Z,100.00
2022-09-24T22:35:49.635Z,100.00
2022-09-24T22:38:54.804Z,100.00
2022-09-24T22:41:56.158Z,100.00
2022-09-24T22:44:58.561Z,100.00
2022-09-24T22:47:59.917Z,100.00
2022-09-24T22:51:01.385Z,100.00
2022-09-24T22:54:02.889Z,100.00
2022-09-24T22:57:04.283Z,100.00
2022-09-24T23:00:06.126Z,100.00
2022-09-24T23:03:07.453Z,100.00
2022-09-24T23:06:08.785Z,100.00
2022-09-24T23:09:10.095Z,100.00
2022-09-24T23:12:11.642Z,100.00
2022-09-24T23:15:12.970Z,100.00
2022-09-24T23:18:14.305Z,100.00
2022-09-24T23:21:16.091Z,100.00
2022-09-24T23:24:18.240Z,100.00
2022-09-24T23:27:20.216Z,100.00
2022-09-24T23:30:22.476Z,100.00
2022-09-24T23:33:23.898Z,100.00
2022-09-24T23:36:25.316Z,100.00
2022-09-24T23:39:26.621Z,100.00
2022-09-24T23:42:28.916Z,100.00
2022-09-24T23:45:30.895Z,100.00
2022-09-24T23:48:32.210Z,100.00
2022-09-24T23:51:33.531Z,100.00
2022-09-24T23:54:37.219Z,100.00
2022-09-24T23:57:38.612Z,100.00
